createdAt,value
2022-08-11T00:02:01.045Z,16.90
2022-08-11T00:04:37.247Z,16.90
2022-08-11T00:07:07.064Z,16.80
2022-08-11T00:09:39.165Z,16.80
2022-08-11T00:15:03.016Z,16.70
2022-08-11T00:17:34.184Z,16.90
2022-08-11T00:20:12.273Z,17.00
2022-08-11T00:22:46.644Z,17.10
2022-08-11T00:25:23.163Z,17.00
2022-08-11T00:27:50.519Z,16.90
2022-08-11T00:30:17.927Z,17.00
2022-08-11T00:32:55.569Z,17.00
2022-08-11T00:35:55.898Z,16.80
2022-08-11T00:38:16.817Z,16.80
2022-08-11T00:40:59.587Z,17.00
2022-08-11T00:43:48.777Z,17.00
2022-08-11T00:46:34.804Z,17.00
2022-08-11T00:49:16.769Z,17.00
2022-08-11T00:52:06.529Z,17.00
2022-08-11T00:54:40.022Z,16.80
2022-08-11T00:57:45.670Z,16.80
2022-08-11T01:00:23.673Z,16.90
2022-08-11T01:03:15.135Z,16.70
2022-08-11T01:06:07.959Z,16.70
2022-08-11T01:09:22.328Z,16.70
2022-08-11T01:12:30.929Z,16.80
2022-08-11T01:15:28.598Z,17.00
2022-08-11T01:18:14.052Z,16.90
2022-08-11T01:21:15.025Z,16.60
2022-08-11T01:24:14.196Z,16.60
2022-08-11T01:27:19.165Z,16.80
2022-08-11T01:30:22.572Z,16.70
2022-08-11T01:33:04.681Z,16.60
2022-08-11T01:36:08.861Z,16.70
2022-08-11T01:39:06.528Z,16.70
2022-08-11T01:42:20.224Z,16.60
2022-08-11T01:45:09.177Z,16.50
2022-08-11T01:47:54.381Z,16.80
2022-08-11T01:50:40.504Z,16.70
2022-08-11T01:53:28.785Z,16.80
2022-08-11T01:56:04.939Z,16.80
2022-08-11T01:58:50.585Z,17.00
2022-08-11T02:01:44.503Z,17.30
2022-08-11T02:04:56.060Z,17.10
2022-08-11T02:07:32.308Z,16.80
2022-08-11T02:10:52.127Z,16.80
2022-08-11T02:14:03.530Z,16.80
2022-08-11T02:16:44.626Z,16.90
2022-08-11T02:19:37.554Z,17.00
2022-08-11T02:22:29.359Z,16.70
2022-08-11T02:25:08.710Z,17.10
2022-08-11T02:28:04.222Z,17.30
2022-08-11T02:30:38.559Z,17.30
2022-08-11T02:33:27.650Z,17.30
2022-08-11T02:36:10.746Z,17.40
2022-08-11T02:38:37.878Z,17.30
2022-08-11T02:41:52.633Z,17.30
2022-08-11T02:44:57.703Z,17.40
2022-08-11T02:48:17.332Z,17.60
2022-08-11T02:51:22.404Z,17.40
2022-08-11T02:54:17.728Z,17.60
2022-08-11T02:57:11.512Z,17.50
2022-08-11T02:59:56.909Z,17.60
2022-08-11T03:02:32.749Z,17.70
2022-08-11T03:04:59.958Z,17.60
2022-08-11T03:07:54.556Z,17.60
2022-08-11T03:10:46.329Z,17.60
2022-08-11T03:13:48.457Z,17.30
2022-08-11T03:16:57.754Z,17.40
2022-08-11T03:19:47.088Z,17.70
2022-08-11T03:22:20.026Z,17.70
2022-08-11T03:24:47.092Z,17.50
2022-08-11T03:27:29.193Z,17.50
2022-08-11T03:30:27.790Z,17.50
2022-08-11T03:33:19.381Z,17.30
2022-08-11T03:36:22.149Z,17.30
2022-08-11T03:38:51.925Z,17.70
2022-08-11T03:41:54.635Z,17.40
2022-08-11T03:44:49.689Z,17.50
2022-08-11T03:47:55.631Z,17.50
2022-08-11T03:50:41.633Z,17.60
2022-08-11T03:53:48.415Z,17.60
2022-08-11T03:56:53.056Z,17.60
2022-08-11T03:59:56.545Z,17.50
2022-08-11T04:02:41.734Z,17.80
2022-08-11T04:05:33.622Z,18.00
2022-08-11T04:08:12.595Z,18.20
2022-08-11T04:11:09.005Z,18.30
2022-08-11T04:14:47.761Z,18.30
2022-08-11T04:17:38.214Z,18.40
2022-08-11T04:20:24.429Z,18.50
2022-08-11T04:24:36.589Z,18.50
2022-08-11T04:26:27.414Z,18.60
2022-08-11T04:29:25.064Z,18.50
2022-08-11T04:33:03.003Z,18.40
2022-08-11T04:35:48.809Z,18.70
2022-08-11T04:38:46.682Z,18.70
2022-08-11T04:41:31.129Z,18.60
2022-08-11T04:44:27.505Z,19.00
2022-08-11T04:47:10.800Z,19.30
2022-08-11T04:50:08.433Z,19.00
2022-08-11T04:53:10.750Z,20.40
2022-08-11T04:56:35.458Z,19.20
2022-08-11T04:59:59.022Z,19.20
2022-08-11T05:02:38.027Z,19.40
2022-08-11T05:05:42.358Z,19.60
2022-08-11T05:08:41.691Z,19.60
2022-08-11T05:11:39.470Z,19.20
2022-08-11T05:14:33.875Z,19.30
2022-08-11T05:17:50.678Z,19.40
2022-08-11T05:20:36.556Z,19.60
2022-08-11T05:23:25.234Z,19.40
2022-08-11T05:26:47.207Z,19.80
2022-08-11T05:29:24.134Z,19.90
2022-08-11T05:32:17.947Z,19.90
2022-08-11T05:34:58.512Z,20.10
2022-08-11T05:37:33.957Z,20.20
2022-08-11T05:40:31.351Z,20.20
2022-08-11T05:43:32.362Z,20.60
2022-08-11T05:46:25.915Z,20.30
2022-08-11T05:49:11.919Z,20.80
2022-08-11T05:52:05.637Z,20.90
2022-08-11T05:55:06.143Z,21.30
2022-08-11T05:57:49.511Z,21.30
2022-08-11T06:00:20.273Z,21.00
2022-08-11T06:02:59.274Z,21.50
2022-08-11T06:05:44.043Z,21.20
2022-08-11T06:08:14.035Z,21.30
2022-08-11T06:10:45.720Z,21.40
2022-08-11T06:13:17.216Z,21.50
2022-08-11T06:15:52.300Z,21.30
2022-08-11T06:18:20.041Z,21.40
2022-08-11T06:20:50.033Z,21.60
2022-08-11T06:23:23.905Z,21.60
2022-08-11T06:25:56.148Z,21.70
2022-08-11T06:28:37.191Z,22.20
2022-08-11T06:31:25.433Z,22.30
2022-08-11T06:34:27.608Z,22.30
2022-08-11T06:37:14.296Z,22.10
2022-08-11T06:39:56.672Z,22.10
2022-08-11T06:42:37.266Z,22.70
2022-08-11T06:45:27.979Z,22.80
2022-08-11T06:48:00.954Z,22.90
2022-08-11T06:50:48.160Z,22.70
2022-08-11T06:53:18.797Z,22.80
2022-08-11T06:56:07.248Z,22.80
2022-08-11T06:58:59.055Z,23.50
2022-08-11T07:01:54.889Z,22.80
2022-08-11T07:04:54.820Z,22.60
2022-08-11T07:08:33.538Z,23.10
2022-08-11T07:11:56.726Z,22.70
2022-08-11T07:14:45.841Z,22.80
2022-08-11T07:17:17.947Z,23.00
2022-08-11T07:20:10.687Z,22.90
2022-08-11T07:22:57.395Z,23.20
2022-08-11T07:25:44.000Z,23.00
2022-08-11T07:28:36.344Z,23.50
2022-08-11T07:31:14.385Z,23.40
2022-08-11T07:34:06.409Z,23.60
2022-08-11T07:36:38.669Z,23.90
2022-08-11T07:39:15.501Z,24.20
2022-08-11T07:41:43.863Z,24.00
2022-08-11T07:44:11.833Z,24.60
2022-08-11T07:47:05.081Z,25.00
2022-08-11T07:49:55.381Z,24.70
2022-08-11T07:52:34.069Z,24.70
2022-08-11T07:55:10.244Z,23.60
2022-08-11T07:58:16.131Z,24.10
2022-08-11T08:01:22.543Z,24.20
2022-08-11T08:04:09.914Z,23.90
2022-08-11T08:06:56.804Z,24.50
2022-08-11T08:09:43.853Z,24.60
2022-08-11T08:12:31.108Z,24.70
2022-08-11T08:15:17.438Z,25.70
2022-08-11T08:18:09.264Z,25.30
2022-08-11T08:20:50.271Z,25.80
2022-08-11T08:23:33.778Z,24.40
2022-08-11T08:26:04.814Z,23.80
2022-08-11T08:28:33.938Z,24.90
2022-08-11T08:31:01.582Z,25.10
2022-08-11T08:33:31.305Z,24.60
2022-08-11T08:36:15.577Z,24.40
2022-08-11T08:38:47.802Z,25.00
2022-08-11T08:41:23.123Z,24.90
2022-08-11T08:43:53.961Z,25.10
2022-08-11T08:46:33.287Z,25.80
2022-08-11T08:49:05.008Z,25.60
2022-08-11T08:52:02.527Z,25.80
2022-08-11T08:54:34.277Z,25.90
2022-08-11T08:57:05.912Z,25.90
2022-08-11T08:59:48.641Z,24.90
2022-08-11T09:02:33.515Z,25.60
2022-08-11T09:05:04.720Z,26.10
2022-08-11T09:07:39.686Z,26.80
2022-08-11T09:10:11.100Z,26.40
2022-08-11T09:12:42.900Z,25.90
2022-08-11T09:15:12.709Z,26.20
2022-08-11T09:17:41.914Z,25.50
2022-08-11T09:20:17.953Z,25.40
2022-08-11T09:24:08.378Z,25.50
2022-08-11T09:26:14.912Z,25.50
2022-08-11T09:28:46.311Z,25.60
2022-08-11T09:31:15.045Z,25.60
2022-08-11T09:33:44.221Z,26.00
2022-08-11T09:36:34.768Z,26.60
2022-08-11T09:39:23.726Z,27.90
2022-08-11T09:42:00.582Z,27.30
2022-08-11T09:44:50.832Z,27.70
2022-08-11T09:47:25.758Z,28.20
2022-08-11T09:50:00.488Z,26.60
2022-08-11T09:52:48.243Z,26.50
2022-08-11T09:55:25.577Z,27.30
2022-08-11T09:58:11.550Z,28.20
2022-08-11T10:01:02.278Z,26.90
2022-08-11T10:03:32.946Z,25.30
2022-08-11T10:06:34.358Z,25.50
2022-08-11T10:09:05.378Z,26.70
2022-08-11T10:11:36.633Z,29.20
2022-08-11T10:14:33.100Z,30.60
2022-08-11T10:17:09.306Z,30.90
2022-08-11T10:19:40.383Z,31.80
2022-08-11T10:22:27.631Z,32.30
2022-08-11T10:25:19.849Z,32.20
2022-08-11T10:28:17.160Z,32.20
2022-08-11T10:31:06.783Z,29.90
2022-08-11T10:33:59.082Z,29.10
2022-08-11T10:36:48.371Z,29.90
2022-08-11T10:39:20.496Z,29.70
2022-08-11T10:42:12.290Z,29.80
2022-08-11T10:44:45.930Z,31.60
2022-08-11T10:47:33.508Z,31.70
2022-08-11T10:50:33.921Z,33.40
2022-08-11T10:53:21.570Z,33.40
2022-08-11T10:56:08.250Z,32.30
2022-08-11T10:58:50.058Z,28.40
2022-08-11T11:01:36.517Z,29.50
2022-08-11T11:04:29.345Z,32.50
2022-08-11T11:07:16.004Z,30.10
2022-08-11T11:09:49.201Z,26.90
2022-08-11T11:12:54.171Z,29.00
2022-08-11T11:15:42.519Z,34.30
2022-08-11T11:18:16.085Z,31.00
2022-08-11T11:20:51.789Z,33.30
2022-08-11T11:23:32.979Z,32.80
2022-08-11T11:26:45.875Z,34.00
2022-08-11T11:29:38.317Z,34.30
2022-08-11T11:32:35.981Z,36.20
2022-08-11T11:35:26.899Z,36.30
2022-08-11T11:38:04.098Z,36.40
2022-08-11T11:40:32.927Z,36.50
2022-08-11T11:43:01.330Z,36.20
2022-08-11T11:45:29.061Z,36.00
2022-08-11T11:47:59.844Z,35.30
2022-08-11T11:50:36.071Z,35.50
2022-08-11T11:53:12.827Z,34.00
2022-08-11T11:55:41.214Z,32.20
2022-08-11T11:58:28.345Z,34.30
2022-08-11T12:01:15.368Z,31.30
2022-08-11T12:03:46.372Z,35.40
2022-08-11T12:06:14.631Z,36.60
2022-08-11T12:08:43.199Z,33.90
2022-08-11T12:11:31.419Z,33.60
2022-08-11T12:14:04.814Z,33.00
2022-08-11T12:16:41.444Z,32.60
2022-08-11T12:19:11.999Z,34.80
2022-08-11T12:22:00.828Z,31.30
2022-08-11T12:24:48.669Z,34.10
2022-08-11T12:27:24.936Z,34.80
2022-08-11T12:30:09.428Z,31.60
2022-08-11T12:32:38.786Z,31.50
2022-08-11T12:35:08.131Z,32.90
2022-08-11T12:37:45.399Z,33.40
2022-08-11T12:41:11.935Z,36.30
2022-08-11T12:43:56.863Z,37.10
2022-08-11T12:46:32.123Z,36.80
2022-08-11T12:49:21.932Z,36.80
2022-08-11T12:52:12.036Z,37.10
2022-08-11T12:54:49.968Z,35.90
2022-08-11T12:57:43.102Z,36.00
2022-08-11T13:00:29.677Z,35.80
2022-08-11T13:03:16.271Z,36.50
2022-08-11T13:05:45.426Z,36.40
2022-08-11T13:08:17.573Z,35.20
2022-08-11T13:11:04.972Z,35.20
2022-08-11T13:13:55.553Z,35.30
2022-08-11T13:16:30.891Z,35.70
2022-08-11T13:19:01.614Z,36.50
2022-08-11T13:21:30.218Z,35.40
2022-08-11T13:23:59.915Z,36.00
2022-08-11T13:26:48.122Z,35.90
2022-08-11T13:29:26.786Z,35.80
2022-08-11T13:31:56.764Z,34.30
2022-08-11T13:34:27.095Z,36.20
2022-08-11T13:36:57.403Z,36.20
2022-08-11T13:39:33.452Z,35.40
2022-08-11T13:42:02.712Z,35.30
2022-08-11T13:44:36.598Z,35.30
2022-08-11T13:47:05.445Z,34.20
2022-08-11T13:49:39.549Z,34.20
2022-08-11T13:52:13.191Z,35.20
2022-08-11T13:54:42.593Z,35.40
2022-08-11T13:57:13.850Z,34.40
2022-08-11T14:00:13.324Z,34.00
2022-08-11T14:02:54.189Z,35.40
2022-08-11T14:05:28.459Z,35.60
2022-08-11T14:08:38.219Z,35.40
2022-08-11T14:12:22.153Z,33.80
2022-08-11T14:14:13.788Z,34.90
2022-08-11T14:16:44.750Z,34.70
2022-08-11T14:19:14.946Z,34.40
2022-08-11T14:22:10.666Z,34.30
2022-08-11T14:24:42.761Z,34.40
2022-08-11T14:28:22.078Z,32.90
2022-08-11T14:30:02.040Z,33.70
2022-08-11T14:32:31.538Z,33.90
2022-08-11T14:34:59.300Z,31.90
2022-08-11T14:37:29.235Z,30.20
2022-08-11T14:40:21.751Z,28.50
2022-08-11T14:43:07.427Z,27.80
2022-08-11T14:45:54.230Z,28.10
2022-08-11T14:48:25.721Z,27.50
2022-08-11T14:50:53.867Z,27.10
2022-08-11T14:53:23.567Z,26.80
2022-08-11T14:56:10.908Z,27.10
2022-08-11T14:58:40.510Z,26.80
2022-08-11T15:01:27.951Z,26.80
2022-08-11T15:04:24.272Z,26.70
2022-08-11T15:06:44.348Z,26.60
2022-08-11T15:09:11.628Z,26.60
2022-08-11T15:11:57.959Z,26.60
2022-08-11T15:14:44.327Z,27.00
2022-08-11T15:17:13.240Z,26.70
2022-08-11T15:20:03.426Z,26.40
2022-08-11T15:22:50.901Z,26.50
2022-08-11T15:25:20.237Z,26.30
2022-08-11T15:28:09.411Z,26.10
2022-08-11T15:30:56.436Z,26.10
2022-08-11T15:33:45.791Z,26.00
2022-08-11T15:36:33.987Z,25.90
2022-08-11T15:39:13.656Z,25.90
2022-08-11T15:42:13.541Z,25.60
2022-08-11T15:45:03.485Z,25.50
2022-08-11T15:48:05.685Z,25.60
2022-08-11T15:50:39.065Z,26.00
2022-08-11T15:53:32.981Z,26.10
2022-08-11T15:56:02.192Z,25.90
2022-08-11T15:59:10.556Z,25.90
2022-08-11T16:02:03.094Z,26.10
2022-08-11T16:04:32.374Z,26.00
2022-08-11T16:07:12.895Z,26.00
2022-08-11T16:09:54.995Z,25.60
2022-08-11T16:13:15.630Z,25.80
2022-08-11T16:16:07.617Z,25.70
2022-08-11T16:18:41.600Z,25.50
2022-08-11T16:21:34.022Z,25.40
2022-08-11T16:24:01.305Z,25.20
2022-08-11T16:27:09.236Z,25.20
2022-08-11T16:29:19.869Z,25.10
2022-08-11T16:32:08.009Z,24.70
2022-08-11T16:34:54.696Z,24.70
2022-08-11T16:37:42.376Z,24.50
2022-08-11T16:43:12.446Z,24.40
2022-08-11T16:46:13.373Z,24.50
2022-08-11T16:48:43.730Z,24.50
2022-08-11T16:51:12.545Z,24.40
2022-08-11T16:53:59.409Z,24.30
2022-08-11T16:56:53.694Z,24.20
2022-08-11T16:59:37.485Z,24.50
2022-08-11T17:02:12.036Z,24.30
2022-08-11T17:05:15.203Z,24.10
2022-08-11T17:08:02.242Z,24.00
2022-08-11T17:11:00.066Z,24.10
2022-08-11T17:13:37.118Z,23.90
2022-08-11T17:16:08.453Z,23.90
2022-08-11T17:18:59.893Z,23.80
2022-08-11T17:21:35.985Z,23.90
2022-08-11T17:24:09.686Z,23.70
2022-08-11T17:26:55.796Z,23.60
2022-08-11T17:29:54.859Z,23.70
2022-08-11T17:32:56.482Z,23.60
2022-08-11T17:35:34.317Z,23.30
2022-08-11T17:38:07.065Z,23.40
2022-08-11T17:41:01.719Z,23.00
2022-08-11T17:43:49.178Z,23.00
2022-08-11T17:46:36.189Z,22.90
2022-08-11T17:49:07.837Z,23.00
2022-08-11T17:51:56.064Z,22.90
2022-08-11T17:54:44.293Z,23.00
2022-08-11T17:57:32.386Z,23.00
2022-08-11T18:00:01.007Z,22.80
2022-08-11T18:02:52.320Z,22.40
2022-08-11T18:05:22.018Z,22.40
2022-08-11T18:08:11.982Z,22.20
2022-08-11T18:10:59.375Z,22.10
2022-08-11T18:13:50.436Z,22.10
2022-08-11T18:16:37.639Z,22.10
2022-08-11T18:19:26.033Z,22.10
2022-08-11T18:22:19.950Z,22.10
2022-08-11T18:25:31.634Z,21.80
2022-08-11T18:28:31.972Z,21.60
2022-08-11T18:31:22.049Z,21.50
2022-08-11T18:34:11.680Z,22.00
2022-08-11T18:37:09.561Z,22.20
2022-08-11T18:40:15.414Z,22.10
2022-08-11T18:43:05.402Z,22.00
2022-08-11T18:46:05.390Z,22.10
2022-08-11T18:48:57.839Z,21.90
2022-08-11T18:51:45.673Z,21.70
2022-08-11T18:54:32.941Z,22.00
2022-08-11T18:57:21.877Z,21.90
2022-08-11T19:00:10.938Z,21.40
2022-08-11T19:02:59.066Z,21.80
2022-08-11T19:06:32.421Z,21.60
2022-08-11T19:08:59.871Z,21.60
2022-08-11T19:11:48.603Z,21.40
2022-08-11T19:14:37.294Z,21.30
2022-08-11T19:17:43.853Z,21.40
2022-08-11T19:20:35.195Z,21.40
2022-08-11T19:23:22.508Z,21.30
2022-08-11T19:26:09.164Z,21.30
2022-08-11T19:28:57.556Z,21.40
2022-08-11T19:31:45.230Z,21.30
2022-08-11T19:34:37.490Z,21.20
2022-08-11T19:37:26.290Z,21.30
2022-08-11T19:40:16.783Z,21.30
2022-08-11T19:43:03.414Z,21.30
2022-08-11T19:45:50.482Z,21.10
2022-08-11T19:48:40.966Z,21.10
2022-08-11T19:51:28.587Z,21.10
2022-08-11T19:54:15.747Z,21.00
2022-08-11T19:57:03.530Z,21.00
2022-08-11T19:59:51.286Z,21.10
2022-08-11T20:02:37.196Z,21.10
2022-08-11T20:05:24.931Z,21.10
2022-08-11T20:08:15.159Z,21.20
2022-08-11T20:11:03.036Z,21.10
2022-08-11T20:13:50.091Z,21.10
2022-08-11T20:16:39.785Z,21.10
2022-08-11T20:19:55.985Z,20.80
2022-08-11T20:22:36.144Z,20.70
2022-08-11T20:25:25.370Z,20.70
2022-08-11T20:28:12.648Z,20.70
2022-08-11T20:31:02.511Z,20.60
2022-08-11T20:33:49.759Z,20.30
2022-08-11T20:36:36.435Z,20.40
2022-08-11T20:39:23.733Z,20.40
2022-08-11T20:42:12.678Z,20.60
2022-08-11T20:44:59.773Z,20.50
2022-08-11T20:47:58.869Z,20.50
2022-08-11T20:50:47.148Z,20.60
2022-08-11T20:53:39.099Z,20.60
2022-08-11T20:56:28.198Z,20.60
2022-08-11T20:59:21.584Z,20.50
2022-08-11T21:02:09.978Z,20.50
2022-08-11T21:05:00.728Z,20.40
2022-08-11T21:07:57.095Z,20.30
2022-08-11T21:13:59.417Z,19.80
2022-08-11T21:16:53.769Z,19.70
2022-08-11T21:20:01.556Z,19.40
2022-08-11T21:23:05.396Z,19.40
2022-08-11T21:26:02.510Z,19.40
2022-08-11T21:28:50.376Z,19.50
2022-08-11T21:31:37.967Z,19.30
2022-08-11T21:34:25.060Z,19.40
2022-08-11T21:37:11.994Z,19.40
2022-08-11T21:39:58.781Z,19.40
2022-08-11T21:42:46.570Z,19.40
2022-08-11T21:45:34.625Z,19.40
2022-08-11T21:48:21.498Z,19.30
2022-08-11T21:51:07.606Z,19.00
2022-08-11T21:53:53.968Z,18.90
2022-08-11T21:56:42.196Z,18.90
2022-08-11T21:59:30.204Z,18.80
2022-08-11T22:02:18.277Z,18.70
2022-08-11T22:05:04.202Z,18.90
2022-08-11T22:07:50.939Z,19.00
2022-08-11T22:10:41.811Z,19.10
2022-08-11T22:13:31.863Z,19.40
2022-08-11T22:16:18.535Z,19.20
2022-08-11T22:19:06.450Z,19.20
2022-08-11T22:22:01.383Z,19.40
2022-08-11T22:24:52.753Z,19.30
2022-08-11T22:27:39.960Z,19.20
2022-08-11T22:30:27.191Z,19.00
2022-08-11T22:33:15.618Z,18.90
2022-08-11T22:36:03.975Z,18.60
2022-08-11T22:38:52.821Z,18.50
2022-08-11T22:41:41.605Z,18.40
2022-08-11T22:44:30.988Z,18.30
2022-08-11T22:47:20.136Z,18.40
2022-08-11T22:50:14.453Z,18.60
2022-08-11T22:53:01.595Z,18.40
2022-08-11T22:55:48.308Z,18.30
2022-08-11T22:58:35.313Z,18.30
2022-08-11T23:01:21.088Z,18.10
2022-08-11T23:04:07.389Z,18.00
2022-08-11T23:06:54.374Z,18.10
2022-08-11T23:09:42.870Z,18.00
2022-08-11T23:12:29.085Z,18.00
2022-08-11T23:15:15.661Z,18.10
2022-08-11T23:18:02.929Z,18.00
2022-08-11T23:20:53.631Z,18.00
2022-08-11T23:23:41.940Z,18.00
2022-08-11T23:26:29.936Z,17.90
2022-08-11T23:29:17.508Z,17.90
2022-08-11T23:32:04.370Z,18.20
2022-08-11T23:35:04.223Z,18.20
2022-08-11T23:37:51.669Z,18.00
2022-08-11T23:40:37.517Z,17.90
2022-08-11T23:43:23.897Z,17.90
2022-08-11T23:46:09.797Z,18.00
2022-08-11T23:48:57.322Z,18.10
2022-08-11T23:51:45.598Z,17.90
2022-08-11T23:54:37.135Z,17.80
2022-08-11T23:57:26.390Z,17.60
